首页
METAR-TAF:

METAR-TAF

机场 :

New Bern, 北卡罗来纳州, 美国

纬度: 35-04-03N, 经度: 077-02-50W, 海拔: 5米

当前天气观测

该预报发布于16分钟前的01:54 UTC
风速7节,风向南转西南
温度 26°C
湿度 89%
气压 1016 hPa
能見度: 16.1公里
天空无云

METAR: KEWN 220154Z AUTO 20007KT 10SM CLR 26/24 A3000 RMK AO2 SLP158 T02610244

时间: 22:10 (02:10 UTC)

预报

该预报发布于2小时和35分钟前的23:35 UTC
预报有效从22日的 00点(UTC)到 22日的 24点(UTC)
风速7节,风向南转西南
能見度: 10公里
散云层高于5000英尺
附近有阵雨
从 22日的 0100点(UTC)
风速5节,风向西南
能見度: 10公里
散云层高于5000英尺
从 22日的 1000点(UTC)
风速6节,风向西南
能見度: 10公里
多云层高于2500英尺
从 22日的 1400点(UTC)
风速8节,风向西转西南
能見度: 10公里
散云层高于3500英尺
从 22日的 1800点(UTC)
风速9节,风向西南
能見度: 10公里
多云层高于4000英尺, 积雨云.
附近有雷暴

TAF: KEWN 212335Z 2200/2224 21007KT P6SM VCSH SCT050 FM220100 22005KT P6SM SCT050 FM221000 23006KT P6SM BKN025 FM221400 24008KT P6SM SCT035 FM221800 22009KT P6SM VCTS BKN040CB

超过4000个机场的气象观测和天气预报(METAR&TAF报告)。

可查询的气象台以黄色和红色小点在地图上表示。

将鼠标移到小点上方,可查看气象台名称。

然后点击查看天气观测和预报。

如需切换地图:点击带黑十字的绿色按钮放大地图;点击带横线的绿色按钮缩小地图;或者点击绿色箭头查看邻近地区的地图。


METAR-TAF: